Weather observations for the past three days for
Point Thomson Airstrip
Imperial (Metric)
Date Time (akdt) Wind (mph) Vis. (mi.) Weather Sky Cond. Temperature (ºF) Relative Humidity Wind Chill (°F) Heat Index (°F) Pressure Precipitation (in)
Air Dwpt 6 hour altimeter (in) sea level (mb) 1 hr 3 hr 6 hr
Max. Min.
30 21:35 E 9 10.00 Overcast BKN060 BKN090 OVC110 33.8 32.9 97% 27 29.62 0.0
30 21:15 E 8 10.00 Overcast OVC110 33.8 32.7 96% 28 29.62 0.0
30 20:55 E 8 10.00 Mostly Cloudy SCT100 BKN120 34.2 32.9 95% 28 29.62 0.0
30 20:35 E 7 10.00 Mostly Cloudy SCT100 BKN120 34.3 32.9 94% 29 29.62 0.0
30 20:15 E 10 10.00 Partly Cloudy SCT070 SCT120 34.5 32.9 94% 27 29.62 0.0
30 19:55 E 9 10.00 Partly Cloudy SCT070 34.3 32.9 94% 28 29.62 0.0
30 19:35 E 10 10.00 Fair CLR 34.3 32.7 94% 27 29.62 0.0
30 19:15 E 9 10.00 Fair CLR 34.3 32.9 94% 28 29.62 0.0
30 18:55 E 12 10.00 Fair CLR 34.3 32.7 94% 27 29.62 0.0
30 18:35 E 12 10.00 Fair CLR 34.3 32.5 93% 27 29.61 0.0
30 18:15 E 14 10.00 Fair CLR 34.9 32.7 92% 26 29.61 0.0
30 17:55 E 14 10.00 Fair CLR 36.3 33.1 88% 28 29.62 0.0
30 17:35 E 13 10.00 Fair CLR 36.7 33.6 89% 29 29.62 0.0
30 17:15 E 14 10.00 Fair CLR 36.9 33.6 88% 29 29.61 0.0
30 16:55 E 16 10.00 Fair CLR 37.8 34.2 87% 29 29.62 0.0
30 16:35 E 15 10.00 Fair CLR 39.2 34.9 85% 31 29.61 0.0
30 16:15 E 15 10.00 Fair CLR 39.7 35.6 85% 32 29.63 0.0
30 15:55 E 14 10.00 Fair CLR 39.4 35.6 42.1 33.1 86% 32 29.63 0.0
30 15:35 E 14 10.00 Fair CLR 39.7 36.1 87% 33 29.63 0.0
30 15:15 E 14 10.00 Fair CLR 39.4 35.6 86% 32 29.63 0.0
30 14:55 E 14 10.00 Fair CLR 40.1 36.3 86% 33 29.63 0.0
30 14:35 E 12 10.00 Fair CLR 40.8 36.5 85% 35 29.64 0.0
30 14:15 E 13 10.00 Fair CLR 41.2 36.7 84% 35 29.64 0.0
30 13:55 E 12 10.00 Fair CLR 40.5 36.5 86% 34 29.65 0.0
30 13:35 E 12 10.00 Fair CLR 40.3 36.1 85% 34 29.66 0.0
30 13:15 E 13 10.00 Fair CLR 40.5 36.1 85% 34 29.66 0.0
30 12:55 E 12 10.00 Fair CLR 41.4 36.5 83% 35 29.66 0.0
30 12:35 E 10 10.00 Fair CLR 41.4 36.1 82% 36 29.67 0.0
30 12:15 E 10 10.00 Fair CLR 42.1 35.8 78% 37 29.68 0.0
30 11:55 E 10 10.00 Fair CLR 41.7 35.8 80% 36 29.68 0.0
30 11:35 E 10 10.00 Fair CLR 39.7 34.9 83% 34 29.68 0.0
30 11:15 E 10 10.00 Fair CLR 38.5 34.9 87% 32 29.69 0.0
30 10:55 E 9 10.00 Partly Cloudy SCT003 37.4 35.2 92% 31 29.7 0.0
30 10:35 E 9 7.00 Mostly Cloudy BKN001 34.9 34.5 99% 28 29.71 0.0
30 10:15 E 10 0.50 Fog OVC001 33.3 33.3 100% 26 29.71 0.0
30 09:55 E 12 0.75 Fog/Mist OVC001 33.1 33.1 33.6 25.3 100% 25 29.72 0.0
30 09:35 E 9 1.25 Fog/Mist OVC001 33.1 33.1 100% 26 29.73 0.0
30 09:15 E 10 0.75 Fog/Mist OVC001 32.2 32 99% 24 29.74 0.0
30 08:55 E 9 7.00 Mostly Cloudy BKN001 32 32 100% 25 29.74 0.0
30 08:35 E 8 10.00 Fair CLR 31.6 31.6 100% 25 29.75 0.0
30 08:15 E 7 10.00 Fair CLR 30.4 30.4 100% 24 29.75 0.0
30 07:55 SE 7 10.00 Fair CLR 29.3 29.3 100% 23 29.76 0.0
30 07:35 SE 7 10.00 Fair CLR 27.5 27.1 99% 21 29.77 0.0
30 07:15 SE 7 10.00 Fair CLR 28 27.7 99% 22 29.77 0.0
30 06:55 SE 9 10.00 Fair CLR 26.8 26.4 99% 18 29.78 0.0
30 06:35 SE 10 10.00 Fair CLR 25.5 25.2 99% 16 29.79 0.0
30 06:15 SE 7 10.00 Fair CLR 25.3 24.8 98% 18 29.79 0.0
30 05:55 SE 7 10.00 Fair CLR 25.7 25.3 99% 19 29.8 0.0
30 05:35 SE 6 10.00 Fair CLR 25.5 25.3 99% 19 29.81 0.0
30 05:15 SE 8 10.00 Fair CLR 25.7 25.7 100% 18 29.81 0.0
30 04:55 SE 7 10.00 Fair CLR 26.1 25.9 99% 19 29.82 0.0
30 04:35 SE 8 10.00 Fair CLR 26.2 26.1 99% 19 29.82 0.0
30 04:15 SE 8 10.00 Fair CLR 26.6 26.4 99% 19 29.82 0.0
30 03:55 SE 8 10.00 Fair CLR 26.6 26.6 34.3 26.4 100% 19 29.83 0.0
30 03:35 SE 9 10.00 Partly Cloudy SCT001 26.4 26.4 100% 18 29.83 0.0
30 03:15 SE 8 1.00 Fog/Mist OVC001 27 27 100% 19 29.83 0.0
30 02:55 SE 8 1.25 Fog/Mist OVC001 27 27 100% 19 29.84 0.0
30 02:35 SE 8 1.00 Fog/Mist OVC001 26.8 26.8 100% 19 29.84 0.0
30 02:15 E 6 1.25 Fog/Mist BKN001 28.2 28.2 100% 23 29.84 0.0
30 01:55 SE 5 0.50 Freezing Fog OVC001 28.4 28.4 100% 24 29.85 0.0
30 01:35 SE 5 0.50 Freezing Fog OVC001 28.4 28.4 100% 24 29.85 0.0
30 01:15 S 7 0.75 Fog/Mist OVC001 28.8 28.4 99% 22 29.86 0.0
30 00:55 S 5 0.50 Freezing Fog BKN001 OVC035 29.8 29.8 100% 26 29.86 0.0
30 00:35 Calm 1.50 Fog/Mist VV007 31.6 31.6 100% 29.86 0.0
30 00:15 Calm 4.00 Fog/Mist SCT035 32.4 32.4 100% 29.87 0.0
29 23:55 Calm 10.00 Mostly Cloudy BKN037 32.5 32.5 100% 29.87 0.0
29 23:35 Calm 10.00 Overcast SCT007 OVC037 32.9 32.9 100% 29.87 0.0
29 23:15 Calm 10.00 Overcast SCT007 SCT019 OVC037 32.7 32.4 99% 29.88 0.0
29 22:55 W 3 10.00 Overcast SCT019 OVC037 33.8 33.3 98% 29.88 0.0
29 22:35 W 3 10.00 Overcast SCT004 OVC037 33.8 33.3 98% 29.88 0.0
29 22:15 NW 5 10.00 Overcast OVC037 34.2 33.8 99% 31 29.88 0.0
29 21:55 NW 5 10.00 Overcast SCT006 OVC037 34.3 33.8 36.5 34.3 98% 31 29.88 0.0
29 21:35 NW 6 10.00 Overcast BKN006 OVC035 34.5 34 98% 30 29.89 0.0
29 21:15 NW 8 7.00 Overcast SCT004 BKN013 OVC037 34.5 34 98% 29 29.88 0.0
29 20:55 NW 9 4.00 Fog/Mist OVC004 34.7 34.2 98% 28 29.88 0.0
29 20:35 NW 8 2.50 Fog/Mist OVC004 34.7 34.3 99% 29 29.88 0.0
29 20:15 W 9 4.00 Fog/Mist OVC004 34.9 34.7 99% 28 29.88 0.0
29 19:55 NW 9 3.00 Fog/Mist OVC004 35.1 34.7 99% 29 29.88 0.0
29 19:35 NW 12 10.00 Overcast OVC004 35.6 34.7 97% 28 29.87 0.0
29 19:15 W 10 7.00 Overcast OVC004 35.6 34.9 97% 29 29.87 0.0
29 18:55 NW 13 10.00 Overcast OVC004 35.8 35.1 97% 28 29.87 0.0
29 18:35 W 12 10.00 Overcast OVC006 36 35.2 97% 29 29.86 0.0
29 18:15 NW 13 10.00 Overcast OVC006 36 34.9 96% 28 29.86 0.0
29 17:55 W 14 10.00 Overcast OVC006 36.1 35.1 96% 28 29.86 0.0
29 17:35 W 13 10.00 Overcast BKN006 OVC015 36.3 35.2 96% 29 29.85 0.0
29 17:15 W 15 G 20 10.00 Overcast BKN004 BKN010 OVC015 36 35.1 97% 27 29.85 0.0
29 16:55 W 15 10.00 Overcast OVC004 35.8 35.1 97% 27 29.85 0.0
29 16:35 W 15 G 20 7.00 Overcast OVC004 35.6 35.1 98% 27 29.84 0.0
29 16:15 NW 13 3.00 Fog/Mist OVC006 35.6 35.1 98% 28 29.84 0.0
29 15:55 W 17 G 22 4.00 Light Drizzle OVC006 36.5 35.6 36.5 33.8 97% 27 29.83 0.0
29 15:35 W 16 3.00 Light Drizzle OVC006 36.5 35.8 97% 28 29.82 0.0
29 15:15 W 16 G 23 3.00 Light Drizzle OVC008 36.5 35.6 97% 28 29.82 0.0
29 14:55 W 16 G 24 2.50 Light Drizzle OVC006 36.1 35.2 97% 27 29.81 0.0
29 14:35 W 18 2.00 Light Drizzle OVC006 36.5 35.6 97% 27 29.81 0.0
29 14:15 W 17 3.00 Fog/Mist BKN008 OVC012 36.1 35.1 96% 27 29.8 0.0
29 13:55 W 18 G 23 4.00 Fog/Mist BKN008 OVC012 36 34.9 96% 26 29.79 0.0
29 13:35 W 17 4.00 Fog/Mist OVC006 36 34.9 96% 27 29.79 0.0
29 13:15 W 18 2.50 Fog/Mist OVC006 35.8 34.9 97% 26 29.78 0.0
29 12:55 W 16 G 22 3.00 Fog/Mist BKN006 BKN012 OVC019 36.3 35.4 97% 27 29.77 0.0
29 12:35 W 21 2.00 Light Drizzle and Breezy BKN006 OVC010 35.6 34.9 97% 25 29.77 0.0
29 12:15 W 17 4.00 Fog/Mist BKN006 BKN012 OVC016 35.8 34.9 97% 26 29.77 0.0
29 11:55 W 16 G 23 1.25 Light Rain OVC004 35.6 35.1 98% 27 29.76 0.0
29 11:35 SW 18 G 23 1.00 Light Drizzle OVC006 35.2 34.7 98% 25 29.76 0.0
29 11:15 SW 21 2.00 Fog/Mist and Breezy OVC006 34.9 34.2 97% 24 29.75 0.0
29 10:55 SW 18 G 25 1.75 Fog/Mist OVC006 34.7 33.8 97% 25 29.74 0.0
29 10:35 W 18 G 24 7.00 Overcast OVC006 34.3 33.3 96% 24 29.73 0.0
29 10:15 SW 17 G 22 5.00 Fog/Mist BKN006 OVC009 33.8 33.1 97% 24 29.73 0.0
29 09:55 W 17 G 23 10.00 Overcast BKN009 OVC018 34.3 32.9 35.8 32.2 94% 25 29.72 0.0
29 09:35 W 17 G 21 10.00 Overcast SCT009 BKN016 OVC023 34.3 33.1 95% 25 29.71 0.0
29 09:15 W 18 10.00 Overcast BKN006 OVC014 34.2 33.1 96% 24 29.7 0.0
29 08:55 W 16 1.75 Light Drizzle OVC006 33.8 33.4 99% 24 29.7 0.0
29 08:35 W 16 2.00 Fog/Mist OVC006 33.6 33.3 99% 24 29.69 0.0
29 08:15 W 16 2.50 Fog/Mist OVC006 33.1 32.7 99% 23 29.69 0.0
29 07:55 W 15 5.00 Fog/Mist OVC006 32.5 32.2 99% 23 29.68 0.0
29 07:35 W 17 1.00 Light Drizzle OVC004 32.4 32.2 99% 22 29.68 0.0
29 07:15 W 16 G 23 1.25 Light Drizzle OVC004 32.7 32.2 98% 23 29.67 0.0
29 06:55 W 17 2.50 Fog/Mist OVC004 33.1 32.5 98% 23 29.66 0.0
29 06:35 W 16 10.00 Overcast BKN004 OVC038 33.3 32.9 99% 24 29.66 0.0
29 06:15 W 16 G 21 10.00 Overcast OVC004 33.8 33.1 97% 24 29.65 0.0
29 05:55 W 17 3.00 Fog/Mist BKN002 OVC006 34.3 34 99% 25 29.64 0.0
29 05:35 W 17 2.50 Fog/Mist OVC004 34.7 34.5 99% 25 29.62 0.0
29 05:15 W 15 10.00 Overcast OVC004 35.1 34.7 99% 26 29.62 0.0
29 04:55 W 16 10.00 Overcast OVC002 35.6 35.1 98% 27 29.61 0.0
29 04:35 W 14 2.50 Fog/Mist OVC002 35.8 35.6 99% 28 29.6 0.0
29 04:15 W 14 10.00 Overcast OVC004 35.8 35.4 99% 28 29.59 0.0
29 03:55 W 16 10.00 Overcast OVC004 35.8 35.6 36 34.7 99% 27 29.58 0.0
29 03:35 W 16 7.00 Overcast OVC004 35.6 35.2 99% 27 29.57 0.0
29 03:15 W 14 10.00 Overcast OVC004 35.2 34.9 99% 27 29.56 0.0
29 02:55 W 15 10.00 Overcast OVC004 35.2 34.7 98% 26 29.55 0.0
29 02:35 W 13 10.00 Overcast SCT004 OVC030 35.6 35.2 99% 28 29.54 0.0
29 02:15 W 10 10.00 Light Drizzle SCT025 OVC033 35.2 34.7 98% 28 29.53 0.0
29 01:55 W 10 10.00 Light Drizzle OVC035 34.9 34.2 97% 28 29.53 0.0
29 01:35 W 10 10.00 Overcast BKN031 OVC037 34.7 34.2 98% 28 29.51 0.0
29 01:15 W 10 10.00 Overcast OVC031 35.1 34.5 98% 28 29.51 0.0
29 00:55 W 8 10.00 Overcast OVC033 34.9 34.3 98% 29 29.5 0.0
29 00:35 W 7 10.00 Overcast BKN033 BKN041 OVC047 35.1 34.5 98% 30 29.49 0.0
29 00:15 W 6 10.00 Light Drizzle BKN035 BKN040 OVC048 34.9 34.2 97% 30 29.48 0.0
28 23:55 W 6 10.00 Overcast BKN035 BKN060 OVC080 35.1 34.2 97% 31 29.47 0.0
28 23:35 NW 8 10.00 Light Rain SCT035 BKN080 OVC095 35.6 34.9 97% 30 29.46 0.0
28 23:15 W 7 10.00 Light Rain BKN075 OVC085 35.8 34.9 97% 31 29.45 0.0
28 22:55 W 6 10.00 Light Rain BKN070 OVC085 35.8 34.9 97% 32 29.44 0.0
28 22:35 W 6 10.00 Light Drizzle SCT070 OVC085 35.8 34.9 97% 32 29.43 0.0
28 22:15 NW 5 10.00 Light Rain SCT065 OVC085 35.8 34 93% 32 29.42 0.0
28 21:55 W 3 10.00 Light Rain OVC065 36.1 34.2 39.4 36.1 93% 29.41 0.0
28 21:35 Calm 10.00 Overcast OVC065 36.5 35.1 95% 29.4 0.0
28 21:15 N 3 10.00 Light Rain BKN065 OVC085 37 35.6 95% 29.39 0.0
28 20:55 Calm 10.00 Light Drizzle SCT065 BKN095 OVC120 38.3 35.8 91% 29.38 0.0
28 20:35 Calm 10.00 Mostly Cloudy SCT065 SCT075 BKN120 39.2 35.4 86% 29.38 0.0
28 20:15 Calm 10.00 Light Rain SCT075 BKN095 BKN120 39.2 36 88% 29.37 0.0
28 19:55 Calm 10.00 Light Rain SCT075 BKN095 OVC120 39.2 35.6 87% 29.36 0.0
28 19:35 Calm 10.00 Light Rain BKN075 BKN090 OVC120 39.2 36.7 91% 29.35 0.0
28 19:15 Calm 10.00 Overcast SCT050 BKN075 OVC090 39.2 37.2 93% 29.35 0.0
28 18:55 Calm 10.00 Light Rain SCT043 BKN055 OVC065 38.8 36.5 91% 29.34 0.0
28 18:35 Calm 10.00 Light Rain SCT043 SCT049 OVC060 38.5 35.8 90% 29.34 0.0
28 18:15 E 3 10.00 Light Rain SCT050 BKN060 OVC070 38.1 35.8 91% 29.35 0.0
28 17:55 E 3 10.00 Light Rain SCT047 BKN060 OVC080 37.6 35.1 91% 29.35 0.0
28 17:35 E 3 10.00 Light Rain SCT046 BKN055 OVC110 37.6 34.9 90% 29.34 0.0
28 17:15 NE 8 10.00 Overcast BKN050 OVC075 37.9 34.9 89% 33 29.34 0.0
28 16:55 NE 6 10.00 Overcast SCT055 OVC065 37.4 34.9 91% 33 29.34 0.0
28 16:35 Calm 10.00 Light Rain SCT055 BKN065 OVC075 38.3 35.6 90% 29.34 0.0
28 16:15 NE 3 10.00 Light Rain BKN055 OVC065 39.2 36.3 89% 29.34 0.0
28 15:55 NE 7 10.00 Light Drizzle BKN055 OVC065 38.5 34.9 46.9 35.6 87% 34 29.33 0.0
28 15:35 N 5 10.00 Overcast OVC055 40.1 35.4 83% 37 29.33 0.0
28 15:15 NE 5 10.00 Overcast BKN060 OVC070 42.8 35.1 74% 41 29.33 0.0
28 14:55 Calm 10.00 Overcast OVC065 42.3 34.9 75% 29.33 0.0
28 14:35 E 7 10.00 Overcast OVC065 42.1 35.4 77% 38 29.33 0.0
28 14:15 E 3 10.00 Overcast OVC065 43.5 34.5 71% 29.34 0.0
28 13:55 E 7 10.00 Overcast OVC065 46.9 34.2 61% 44 29.34 0.0
28 13:35 E 8 10.00 Overcast OVC065 45.7 32 59% 42 29.34 0.0
28 13:15 E 8 10.00 Partly Cloudy SCT065 44.4 32.4 63% 40 29.35 0.0
28 12:55 SE 9 10.00 Partly Cloudy SCT075 SCT085 SCT095 43.2 32.4 66% 38 29.36 0.0
28 12:35 SE 6 10.00 Mostly Cloudy SCT075 BKN095 39.9 34.2 80% 36 29.37 0.0
28 12:15 E 9 10.00 Overcast BKN075 BKN085 OVC110 38.8 34.3 84% 33 29.37 0.0
28 11:55 E 6 10.00 Overcast BKN085 OVC110 37.6 33.4 85% 34 29.37 0.0
28 11:35 E 7 10.00 Overcast OVC095 36.9 33.8 89% 32 29.38 0.0
28 11:15 E 5 10.00 Overcast OVC095 36.5 33.8 90% 33 29.39 0.0
28 10:55 E 8 10.00 Overcast SCT065 OVC095 37.6 34.9 90% 32 29.4 0.0
28 10:35 E 7 10.00 Overcast BKN065 OVC075 37.4 34.5 89% 33 29.42 0.0
28 10:15 E 3 10.00 Overcast SCT065 BKN080 OVC085 36 34 93% 29.43 0.0
28 09:55 E 3 10.00 Partly Cloudy SCT080 SCT120 35.6 33.8 35.6 29.7 93% 29.43 0.0
28 09:35 E 3 10.00 Fair CLR 34.9 33.3 94% 29.45 0.0
28 09:15 E 5 10.00 Fair CLR 34.7 33.1 94% 31 29.46 0.0
28 08:55 E 8 10.00 Fair CLR 34.3 33.4 97% 28 29.46 0.0
28 08:35 E 6 10.00 Fair CLR 33.8 33.3 98% 29 29.48 0.0
28 08:15 E 6 10.00 Fair CLR 32.9 32.4 98% 28 29.49 0.0
28 07:55 E 6 10.00 Fair CLR 32.2 32 99% 27 29.5 0.0
28 07:35 E 7 10.00 Fair CLR 32 32 100% 26 29.51 0.0
28 07:15 E 6 10.00 Fair CLR 32 32 100% 27 29.52 0.0
28 06:55 E 8 10.00 Fair CLR 31.8 31.8 100% 25 29.53 0.0
28 06:35 E 6 10.00 Fair CLR 31.3 31.3 100% 26 29.55 0.0
28 06:15 E 7 10.00 Fair CLR 30.7 30.7 100% 25 29.56 0.0
28 05:55 E 7 10.00 Fair CLR 30.2 30.2 100% 24 29.56 0.0
28 05:35 E 6 10.00 Fair CLR 30.2 30.2 100% 25 29.57 0.0
28 05:15 E 7 10.00 Fair CLR 29.7 29.7 100% 23 29.58 0.0
28 04:55 E 3 1.75 Fog/Mist BKN002 29.7 29.7 100% 29.6 0.0
28 04:35 E 7 0.50 Freezing Fog OVC002 30.2 30.2 100% 24 29.61 0.0
28 04:15 E 7 0.50 Freezing Fog OVC002 30.9 30.9 100% 25 29.62 0.0
28 03:55 E 9 0.50 Freezing Fog OVC002 31.1 31.1 35.6 30.9 100% 24 29.63 0.0
28 03:35 E 10 0.50 Freezing Fog OVC002 31.1 31.1 100% 23 29.64 0.0
28 03:15 E 9 0.50 Freezing Fog OVC004 31.1 31.1 100% 24 29.66 0.0
28 02:55 E 12 0.75 Fog/Mist OVC004 31.3 31.3 100% 23 29.67 0.0
28 02:35 E 12 0.75 Fog/Mist OVC004 31.6 31.6 100% 23 29.68 0.0
28 02:15 E 13 0.50 Freezing Fog OVC004 31.5 31.5 100% 23 29.69 0.0
28 01:55 E 15 0.50 Freezing Fog OVC004 31.6 31.6 100% 22 29.71 0.0
28 01:35 E 16 3.00 Fog/Mist BKN004 32 31.8 99% 22 29.72 0.0
28 01:15 E 17 10.00 Fair CLR 32 31.8 99% 22 29.73 0.0
28 00:55 E 15 10.00 Fair CLR 32 32 100% 22 29.74 0.0
28 00:35 E 17 10.00 Fair CLR 32.5 32 98% 22 29.75 0.0
28 00:15 E 17 10.00 Fair CLR 32.9 32 97% 23 29.77 0.0
27 23:55 E 17 10.00 Fair CLR 33.1 32 96% 23 29.78 0.0
27 23:35 E 18 10.00 Fair CLR 33.4 32 94% 23 29.79 0.0
27 23:15 E 17 10.00 Fair CLR 33.8 32 93% 24 29.8 0.0
27 22:55 E 18 G 23 10.00 Fair CLR 34 32.4 94% 24 29.82 0.0
27 22:35 E 20 G 25 10.00 Fair CLR 34.7 32.7 93% 24 29.83 0.0
27 22:15 E 16 10.00 Fair CLR 35.2 33.1 92% 26 29.84 0.0
Date Time (akdt) Wind (mph) Vis. (mi.) Weather Sky Cond. Air Dwpt Max. Min. Relative Humidity Wind Chill (°F) Heat Index (°F) altimeter (in) sea level (mb) 1 hr 3 hr 6 hr
6 hour
Temperature (ºF) Pressure Precipitation (in)